sensor_id;sensor_type;location;lat;lon;timestamp;temperature;humidity
20891;DHT22;10605;52.968;8.844;2022-12-11T00:01:09;-0.50;99.90
20891;DHT22;10605;52.968;8.844;2022-12-11T00:03:35;-0.60;99.90
20891;DHT22;10605;52.968;8.844;2022-12-11T00:06:05;-0.60;99.90
20891;DHT22;10605;52.968;8.844;2022-12-11T00:08:31;-0.60;99.90
20891;DHT22;10605;52.968;8.844;2022-12-11T00:10:56;-0.50;99.90
20891;DHT22;10605;52.968;8.844;2022-12-11T00:13:22;-0.50;99.90
20891;DHT22;10605;52.968;8.844;2022-12-11T00:15:48;-0.60;99.90
20891;DHT22;10605;52.968;8.844;2022-12-11T00:18:13;-0.60;99.90
20891;DHT22;10605;52.968;8.844;2022-12-11T00:20:39;-0.50;99.90
20891;DHT22;10605;52.968;8.844;2022-12-11T00:23:05;-0.60;99.90
20891;DHT22;10605;52.968;8.844;2022-12-11T00:25:31;-0.60;99.90
20891;DHT22;10605;52.968;8.844;2022-12-11T00:27:56;-0.60;99.90
20891;DHT22;10605;52.968;8.844;2022-12-11T00:30:22;-0.60;99.90
20891;DHT22;10605;52.968;8.844;2022-12-11T00:32:50;-0.60;99.90
20891;DHT22;10605;52.968;8.844;2022-12-11T00:35:16;-0.60;99.90
20891;DHT22;10605;52.968;8.844;2022-12-11T00:37:41;-0.60;99.90
20891;DHT22;10605;52.968;8.844;2022-12-11T00:40:07;-0.60;99.90
20891;DHT22;10605;52.968;8.844;2022-12-11T00:42:33;-0.60;99.90
20891;DHT22;10605;52.968;8.844;2022-12-11T00:44:59;-0.60;99.90
20891;DHT22;10605;52.968;8.844;2022-12-11T00:47:24;-0.60;99.90
20891;DHT22;10605;52.968;8.844;2022-12-11T00:49:50;-0.60;99.90
20891;DHT22;10605;52.968;8.844;2022-12-11T00:52:16;-0.60;99.90
20891;DHT22;10605;52.968;8.844;2022-12-11T00:54:42;-0.60;99.90
20891;DHT22;10605;52.968;8.844;2022-12-11T00:57:08;-0.60;99.90
20891;DHT22;10605;52.968;8.844;2022-12-11T00:59:33;-0.60;99.90
20891;DHT22;10605;52.968;8.844;2022-12-11T01:01:59;-0.60;99.90
20891;DHT22;10605;52.968;8.844;2022-12-11T01:04:25;-0.60;99.90
20891;DHT22;10605;52.968;8.844;2022-12-11T01:06:50;-0.60;99.90
20891;DHT22;10605;52.968;8.844;2022-12-11T01:09:16;-0.50;99.90
20891;DHT22;10605;52.968;8.844;2022-12-11T01:12:00;-0.60;99.90
20891;DHT22;10605;52.968;8.844;2022-12-11T01:14:27;-0.60;99.90
20891;DHT22;10605;52.968;8.844;2022-12-11T01:16:52;-0.60;99.90
20891;DHT22;10605;52.968;8.844;2022-12-11T01:19:18;-0.60;99.90
20891;DHT22;10605;52.968;8.844;2022-12-11T01:21:45;-0.50;99.90
20891;DHT22;10605;52.968;8.844;2022-12-11T01:24:10;-0.60;99.90
20891;DHT22;10605;52.968;8.844;2022-12-11T01:26:36;-0.50;99.90
20891;DHT22;10605;52.968;8.844;2022-12-11T01:29:01;-0.50;99.90
20891;DHT22;10605;52.968;8.844;2022-12-11T01:31:28;-0.50;99.90
20891;DHT22;10605;52.968;8.844;2022-12-11T01:33:54;-0.50;99.90
20891;DHT22;10605;52.968;8.844;2022-12-11T01:36:21;-0.50;99.90
20891;DHT22;10605;52.968;8.844;2022-12-11T01:38:48;-0.50;99.90
20891;DHT22;10605;52.968;8.844;2022-12-11T01:41:14;-0.60;99.90
20891;DHT22;10605;52.968;8.844;2022-12-11T01:43:57;-0.60;99.90
20891;DHT22;10605;52.968;8.844;2022-12-11T01:46:24;-0.60;99.90
20891;DHT22;10605;52.968;8.844;2022-12-11T01:48:49;-0.50;99.90
20891;DHT22;10605;52.968;8.844;2022-12-11T01:51:15;-0.50;99.90
20891;DHT22;10605;52.968;8.844;2022-12-11T01:53:46;-0.50;99.90
20891;DHT22;10605;52.968;8.844;2022-12-11T01:56:13;-0.50;99.90
20891;DHT22;10605;52.968;8.844;2022-12-11T01:58:43;-0.50;99.90
20891;DHT22;10605;52.968;8.844;2022-12-11T02:01:15;-0.50;99.90
20891;DHT22;10605;52.968;8.844;2022-12-11T02:03:42;-0.50;99.90
20891;DHT22;10605;52.968;8.844;2022-12-11T02:06:32;-0.50;99.90
20891;DHT22;10605;52.968;8.844;2022-12-11T02:08:58;-0.50;99.90
20891;DHT22;10605;52.968;8.844;2022-12-11T02:11:34;-0.50;99.90
20891;DHT22;10605;52.968;8.844;2022-12-11T02:14:19;-0.50;99.90
20891;DHT22;10605;52.968;8.844;2022-12-11T02:30:36;-0.60;99.90
20891;DHT22;10605;52.968;8.844;2022-12-11T02:33:04;-0.50;99.90
20891;DHT22;10605;52.968;8.844;2022-12-11T02:35:37;-0.50;99.90
20891;DHT22;10605;52.968;8.844;2022-12-11T02:38:13;-0.50;99.90
20891;DHT22;10605;52.968;8.844;2022-12-11T02:40:41;-0.50;99.90
20891;DHT22;10605;52.968;8.844;2022-12-11T02:43:10;-0.60;99.90
20891;DHT22;10605;52.968;8.844;2022-12-11T02:45:39;-0.60;99.90
20891;DHT22;10605;52.968;8.844;2022-12-11T02:48:07;-0.60;99.90
20891;DHT22;10605;52.968;8.844;2022-12-11T02:50:35;-0.60;99.90
20891;DHT22;10605;52.968;8.844;2022-12-11T02:53:06;-0.50;99.90
20891;DHT22;10605;52.968;8.844;2022-12-11T02:55:35;-0.50;99.90
20891;DHT22;10605;52.968;8.844;2022-12-11T02:58:12;-0.50;99.90
20891;DHT22;10605;52.968;8.844;2022-12-11T03:00:38;-0.50;99.90
20891;DHT22;10605;52.968;8.844;2022-12-11T03:03:04;-0.50;99.90
20891;DHT22;10605;52.968;8.844;2022-12-11T03:05:30;-0.50;99.90
20891;DHT22;10605;52.968;8.844;2022-12-11T03:07:56;-0.50;99.90
20891;DHT22;10605;52.968;8.844;2022-12-11T03:10:22;-0.50;99.90
20891;DHT22;10605;52.968;8.844;2022-12-11T03:12:50;-0.50;99.90
20891;DHT22;10605;52.968;8.844;2022-12-11T03:15:19;-0.60;99.90
20891;DHT22;10605;52.968;8.844;2022-12-11T03:18:07;-0.50;99.90
20891;DHT22;10605;52.968;8.844;2022-12-11T03:20:42;-0.60;99.90
20891;DHT22;10605;52.968;8.844;2022-12-11T03:23:19;-0.60;99.90
20891;DHT22;10605;52.968;8.844;2022-12-11T03:30:57;-0.60;99.90
20891;DHT22;10605;52.968;8.844;2022-12-11T03:33:27;-0.60;99.90
20891;DHT22;10605;52.968;8.844;2022-12-11T03:36:02;-0.60;99.90
20891;DHT22;10605;52.968;8.844;2022-12-11T03:38:45;-0.70;99.90
20891;DHT22;10605;52.968;8.844;2022-12-11T03:41:14;-0.70;99.90
20891;DHT22;10605;52.968;8.844;2022-12-11T03:43:40;-0.70;99.90
20891;DHT22;10605;52.968;8.844;2022-12-11T03:46:07;-0.70;99.90
20891;DHT22;10605;52.968;8.844;2022-12-11T03:48:35;-0.60;99.90
20891;DHT22;10605;52.968;8.844;2022-12-11T03:51:05;-0.70;99.90
20891;DHT22;10605;52.968;8.844;2022-12-11T03:53:35;-0.60;99.90
20891;DHT22;10605;52.968;8.844;2022-12-11T03:56:05;-0.70;99.90
20891;DHT22;10605;52.968;8.844;2022-12-11T03:58:32;-0.60;99.90
20891;DHT22;10605;52.968;8.844;2022-12-11T04:00:58;-0.60;99.90
20891;DHT22;10605;52.968;8.844;2022-12-11T04:03:24;-0.60;99.90
20891;DHT22;10605;52.968;8.844;2022-12-11T04:05:52;-0.60;99.90
20891;DHT22;10605;52.968;8.844;2022-12-11T04:08:18;-0.50;99.90
20891;DHT22;10605;52.968;8.844;2022-12-11T04:10:48;-0.50;99.90
20891;DHT22;10605;52.968;8.844;2022-12-11T04:13:34;-0.60;99.90
20891;DHT22;10605;52.968;8.844;2022-12-11T04:15:59;-0.60;99.90
20891;DHT22;10605;52.968;8.844;2022-12-11T04:18:25;-0.60;99.90
20891;DHT22;10605;52.968;8.844;2022-12-11T04:21:09;-0.60;99.90
20891;DHT22;10605;52.968;8.844;2022-12-11T04:23:54;-0.60;99.90
20891;DHT22;10605;52.968;8.844;2022-12-11T04:26:38;-0.60;99.90
20891;DHT22;10605;52.968;8.844;2022-12-11T04:29:04;-0.50;99.90
20891;DHT22;10605;52.968;8.844;2022-12-11T04:31:29;-0.50;99.90
20891;DHT22;10605;52.968;8.844;2022-12-11T04:33:55;-0.60;99.90
20891;DHT22;10605;52.968;8.844;2022-12-11T04:36:20;-0.60;99.90
20891;DHT22;10605;52.968;8.844;2022-12-11T04:38:46;-0.60;99.90
20891;DHT22;10605;52.968;8.844;2022-12-11T04:41:13;-0.50;99.90
20891;DHT22;10605;52.968;8.844;2022-12-11T04:43:40;-0.60;99.90
20891;DHT22;10605;52.968;8.844;2022-12-11T04:48:36;-0.60;99.90
20891;DHT22;10605;52.968;8.844;2022-12-11T04:51:02;-0.50;99.90
20891;DHT22;10605;52.968;8.844;2022-12-11T04:53:29;-0.60;99.90
20891;DHT22;10605;52.968;8.844;2022-12-11T04:55:54;-0.60;99.90
20891;DHT22;10605;52.968;8.844;2022-12-11T04:58:21;-0.60;99.90
20891;DHT22;10605;52.968;8.844;2022-12-11T05:00:46;-0.60;99.90
20891;DHT22;10605;52.968;8.844;2022-12-11T05:03:12;-0.60;99.90
20891;DHT22;10605;52.968;8.844;2022-12-11T05:05:38;-0.60;99.90
20891;DHT22;10605;52.968;8.844;2022-12-11T05:08:04;-0.50;99.90
20891;DHT22;10605;52.968;8.844;2022-12-11T05:10:30;-0.60;99.90
20891;DHT22;10605;52.968;8.844;2022-12-11T05:12:55;-0.60;99.90
20891;DHT22;10605;52.968;8.844;2022-12-11T05:15:21;-0.60;99.90
20891;DHT22;10605;52.968;8.844;2022-12-11T05:17:47;-0.60;99.90
20891;DHT22;10605;52.968;8.844;2022-12-11T05:20:13;-0.60;99.90
20891;DHT22;10605;52.968;8.844;2022-12-11T05:22:38;-0.60;99.90
20891;DHT22;10605;52.968;8.844;2022-12-11T05:25:05;-0.60;99.90
20891;DHT22;10605;52.968;8.844;2022-12-11T05:27:31;-0.60;99.90
20891;DHT22;10605;52.968;8.844;2022-12-11T05:29:57;-0.60;99.90
20891;DHT22;10605;52.968;8.844;2022-12-11T05:32:23;-0.70;99.90
20891;DHT22;10605;52.968;8.844;2022-12-11T05:34:49;-0.60;99.90
20891;DHT22;10605;52.968;8.844;2022-12-11T05:37:15;-0.60;99.90
20891;DHT22;10605;52.968;8.844;2022-12-11T05:39:41;-0.70;99.90
20891;DHT22;10605;52.968;8.844;2022-12-11T05:42:07;-0.60;99.90
20891;DHT22;10605;52.968;8.844;2022-12-11T05:44:33;-0.60;99.90
20891;DHT22;10605;52.968;8.844;2022-12-11T05:46:59;-0.60;99.90
20891;DHT22;10605;52.968;8.844;2022-12-11T05:49:24;-0.60;99.90
20891;DHT22;10605;52.968;8.844;2022-12-11T05:51:50;-0.60;99.90
20891;DHT22;10605;52.968;8.844;2022-12-11T05:54:16;-0.60;99.90
20891;DHT22;10605;52.968;8.844;2022-12-11T05:56:42;-0.60;99.90
20891;DHT22;10605;52.968;8.844;2022-12-11T05:59:08;-0.60;99.90
20891;DHT22;10605;52.968;8.844;2022-12-11T06:01:36;-0.60;99.90
20891;DHT22;10605;52.968;8.844;2022-12-11T06:04:04;-0.60;99.90
20891;DHT22;10605;52.968;8.844;2022-12-11T06:06:30;-0.60;99.90
20891;DHT22;10605;52.968;8.844;2022-12-11T06:08:57;-0.60;99.90
20891;DHT22;10605;52.968;8.844;2022-12-11T06:11:25;-0.60;99.90
20891;DHT22;10605;52.968;8.844;2022-12-11T06:13:51;-0.60;99.90
20891;DHT22;10605;52.968;8.844;2022-12-11T06:16:17;-0.60;99.90
20891;DHT22;10605;52.968;8.844;2022-12-11T06:18:44;-0.60;99.90
20891;DHT22;10605;52.968;8.844;2022-12-11T06:21:15;-0.60;99.90
20891;DHT22;10605;52.968;8.844;2022-12-11T06:23:42;-0.60;99.90
20891;DHT22;10605;52.968;8.844;2022-12-11T06:26:09;-0.60;99.90
20891;DHT22;10605;52.968;8.844;2022-12-11T06:28:34;-0.60;99.90
20891;DHT22;10605;52.968;8.844;2022-12-11T06:31:00;-0.60;99.90
20891;DHT22;10605;52.968;8.844;2022-12-11T06:33:26;-0.60;99.90
20891;DHT22;10605;52.968;8.844;2022-12-11T06:35:52;-0.60;99.90
20891;DHT22;10605;52.968;8.844;2022-12-11T06:38:18;-0.60;99.90
20891;DHT22;10605;52.968;8.844;2022-12-11T06:40:44;-0.60;99.90
20891;DHT22;10605;52.968;8.844;2022-12-11T06:43:09;-0.60;99.90
20891;DHT22;10605;52.968;8.844;2022-12-11T06:45:38;-0.60;99.90
20891;DHT22;10605;52.968;8.844;2022-12-11T06:48:04;-0.60;99.90
20891;DHT22;10605;52.968;8.844;2022-12-11T06:50:29;-0.70;99.90
20891;DHT22;10605;52.968;8.844;2022-12-11T06:52:57;-0.60;99.90
20891;DHT22;10605;52.968;8.844;2022-12-11T06:55:23;-0.60;99.90
20891;DHT22;10605;52.968;8.844;2022-12-11T06:57:49;-0.60;99.90
20891;DHT22;10605;52.968;8.844;2022-12-11T07:00:15;-0.70;99.90
20891;DHT22;10605;52.968;8.844;2022-12-11T07:02:41;-0.70;99.90
20891;DHT22;10605;52.968;8.844;2022-12-11T07:05:06;-0.60;99.90
20891;DHT22;10605;52.968;8.844;2022-12-11T07:07:32;-0.60;99.90
20891;DHT22;10605;52.968;8.844;2022-12-11T07:09:58;-0.60;99.90
20891;DHT22;10605;52.968;8.844;2022-12-11T07:12:24;-0.70;99.90
20891;DHT22;10605;52.968;8.844;2022-12-11T07:14:50;-0.70;99.90
20891;DHT22;10605;52.968;8.844;2022-12-11T07:17:15;-0.60;99.90
20891;DHT22;10605;52.968;8.844;2022-12-11T07:19:41;-0.60;99.90
20891;DHT22;10605;52.968;8.844;2022-12-11T07:22:07;-0.60;99.90
20891;DHT22;10605;52.968;8.844;2022-12-11T07:24:32;-0.70;99.90
20891;DHT22;10605;52.968;8.844;2022-12-11T07:26:58;-0.60;99.90
20891;DHT22;10605;52.968;8.844;2022-12-11T07:29:23;-0.60;99.90
20891;DHT22;10605;52.968;8.844;2022-12-11T07:31:49;-0.60;99.90
20891;DHT22;10605;52.968;8.844;2022-12-11T07:34:15;-0.60;99.90
20891;DHT22;10605;52.968;8.844;2022-12-11T07:36:41;-0.60;99.90
20891;DHT22;10605;52.968;8.844;2022-12-11T07:39:10;-0.60;99.90
20891;DHT22;10605;52.968;8.844;2022-12-11T07:41:36;-0.50;99.90
20891;DHT22;10605;52.968;8.844;2022-12-11T07:44:02;-0.50;99.90
20891;DHT22;10605;52.968;8.844;2022-12-11T07:46:30;-0.50;99.90
20891;DHT22;10605;52.968;8.844;2022-12-11T07:48:56;-0.50;99.90
20891;DHT22;10605;52.968;8.844;2022-12-11T07:51:25;-0.50;99.90
20891;DHT22;10605;52.968;8.844;2022-12-11T07:53:54;-0.50;99.90
20891;DHT22;10605;52.968;8.844;2022-12-11T07:56:20;-0.50;99.90
20891;DHT22;10605;52.968;8.844;2022-12-11T07:58:47;-0.50;99.90
20891;DHT22;10605;52.968;8.844;2022-12-11T08:01:18;-0.50;99.90
20891;DHT22;10605;52.968;8.844;2022-12-11T08:03:44;-0.50;99.90
20891;DHT22;10605;52.968;8.844;2022-12-11T08:06:10;-0.50;99.90
20891;DHT22;10605;52.968;8.844;2022-12-11T08:08:36;-0.50;99.90
20891;DHT22;10605;52.968;8.844;2022-12-11T08:11:03;-0.50;99.90
20891;DHT22;10605;52.968;8.844;2022-12-11T08:13:30;-0.40;99.90
20891;DHT22;10605;52.968;8.844;2022-12-11T08:15:56;-0.50;99.90
20891;DHT22;10605;52.968;8.844;2022-12-11T08:18:21;-0.50;99.90
20891;DHT22;10605;52.968;8.844;2022-12-11T08:20:47;-0.40;99.90
20891;DHT22;10605;52.968;8.844;2022-12-11T08:23:13;-0.40;99.90
20891;DHT22;10605;52.968;8.844;2022-12-11T08:25:38;-0.40;99.90
20891;DHT22;10605;52.968;8.844;2022-12-11T08:28:04;-0.40;99.90
20891;DHT22;10605;52.968;8.844;2022-12-11T08:30:30;-0.40;99.90
20891;DHT22;10605;52.968;8.844;2022-12-11T08:32:56;-0.30;99.90
20891;DHT22;10605;52.968;8.844;2022-12-11T08:35:22;-0.40;99.90
20891;DHT22;10605;52.968;8.844;2022-12-11T08:37:47;-0.40;99.90
20891;DHT22;10605;52.968;8.844;2022-12-11T08:40:13;-0.30;99.90
20891;DHT22;10605;52.968;8.844;2022-12-11T08:42:39;-0.30;99.90
20891;DHT22;10605;52.968;8.844;2022-12-11T08:45:05;-0.20;99.90
20891;DHT22;10605;52.968;8.844;2022-12-11T08:47:31;-0.30;99.90
20891;DHT22;10605;52.968;8.844;2022-12-11T08:49:56;-0.20;99.90
20891;DHT22;10605;52.968;8.844;2022-12-11T08:52:22;-0.20;99.90
20891;DHT22;10605;52.968;8.844;2022-12-11T08:54:48;-0.10;99.90
20891;DHT22;10605;52.968;8.844;2022-12-11T08:57:13;-0.10;99.90
20891;DHT22;10605;52.968;8.844;2022-12-11T08:59:39;-0.10;99.90
20891;DHT22;10605;52.968;8.844;2022-12-11T09:02:05;-0.20;99.90
20891;DHT22;10605;52.968;8.844;2022-12-11T09:04:31;-0.10;99.90
20891;DHT22;10605;52.968;8.844;2022-12-11T09:06:57;-0.10;99.90
20891;DHT22;10605;52.968;8.844;2022-12-11T09:09:23;-0.10;99.90
20891;DHT22;10605;52.968;8.844;2022-12-11T09:11:49;-0.10;99.90
20891;DHT22;10605;52.968;8.844;2022-12-11T09:14:14;-0.20;99.90
20891;DHT22;10605;52.968;8.844;2022-12-11T09:16:41;-0.10;99.90
20891;DHT22;10605;52.968;8.844;2022-12-11T09:19:10;-0.20;99.90
20891;DHT22;10605;52.968;8.844;2022-12-11T09:21:37;-0.10;99.90
20891;DHT22;10605;52.968;8.844;2022-12-11T09:24:03;-0.10;99.90
20891;DHT22;10605;52.968;8.844;2022-12-11T09:26:29;-0.10;99.90
20891;DHT22;10605;52.968;8.844;2022-12-11T09:28:55;-0.10;99.90
20891;DHT22;10605;52.968;8.844;2022-12-11T09:31:23;-0.10;99.90
20891;DHT22;10605;52.968;8.844;2022-12-11T09:33:50;0.00;99.90
20891;DHT22;10605;52.968;8.844;2022-12-11T09:36:18;-0.10;99.90
20891;DHT22;10605;52.968;8.844;2022-12-11T09:38:44;0.00;99.90
20891;DHT22;10605;52.968;8.844;2022-12-11T09:46:47;-0.10;99.90
20891;DHT22;10605;52.968;8.844;2022-12-11T09:52:13;0.00;99.90
20891;DHT22;10605;52.968;8.844;2022-12-11T09:54:48;0.10;99.90
20891;DHT22;10605;52.968;8.844;2022-12-11T10:06:24;0.00;99.90
20891;DHT22;10605;52.968;8.844;2022-12-11T10:17:36;0.10;99.90
20891;DHT22;10605;52.968;8.844;2022-12-11T10:22:47;0.10;99.90
20891;DHT22;10605;52.968;8.844;2022-12-11T10:25:28;0.20;99.90
20891;DHT22;10605;52.968;8.844;2022-12-11T10:27:56;0.30;99.90
20891;DHT22;10605;52.968;8.844;2022-12-11T10:30:35;0.30;99.90
20891;DHT22;10605;52.968;8.844;2022-12-11T10:35:46;0.50;99.90
20891;DHT22;10605;52.968;8.844;2022-12-11T10:38:32;0.50;99.90
20891;DHT22;10605;52.968;8.844;2022-12-11T10:41:04;0.40;99.90
20891;DHT22;10605;52.968;8.844;2022-12-11T10:43:59;0.30;99.90
20891;DHT22;10605;52.968;8.844;2022-12-11T10:46:27;0.40;99.90
20891;DHT22;10605;52.968;8.844;2022-12-11T10:48:55;0.30;99.90
20891;DHT22;10605;52.968;8.844;2022-12-11T10:53:57;0.30;99.90
20891;DHT22;10605;52.968;8.844;2022-12-11T10:56:26;0.40;99.90
20891;DHT22;10605;52.968;8.844;2022-12-11T10:58:54;0.40;99.90
20891;DHT22;10605;52.968;8.844;2022-12-11T11:01:22;0.50;99.90
20891;DHT22;10605;52.968;8.844;2022-12-11T11:03:58;0.50;99.90
20891;DHT22;10605;52.968;8.844;2022-12-11T11:06:27;0.50;99.90
20891;DHT22;10605;52.968;8.844;2022-12-11T11:08:56;0.70;99.90
20891;DHT22;10605;52.968;8.844;2022-12-11T11:13:51;0.70;99.90
20891;DHT22;10605;52.968;8.844;2022-12-11T11:16:19;0.60;99.90
20891;DHT22;10605;52.968;8.844;2022-12-11T11:18:53;0.70;99.90
20891;DHT22;10605;52.968;8.844;2022-12-11T11:21:22;0.70;99.90
20891;DHT22;10605;52.968;8.844;2022-12-11T11:23:50;0.80;99.90
20891;DHT22;10605;52.968;8.844;2022-12-11T11:26:16;0.80;99.90
20891;DHT22;10605;52.968;8.844;2022-12-11T11:28:48;0.80;99.90
20891;DHT22;10605;52.968;8.844;2022-12-11T11:31:15;0.70;99.90
20891;DHT22;10605;52.968;8.844;2022-12-11T11:34:01;0.80;99.90
20891;DHT22;10605;52.968;8.844;2022-12-11T11:36:31;0.90;99.90
20891;DHT22;10605;52.968;8.844;2022-12-11T11:47:29;1.00;99.90
20891;DHT22;10605;52.968;8.844;2022-12-11T11:50:17;1.10;99.90
20891;DHT22;10605;52.968;8.844;2022-12-11T11:53:09;1.00;99.90
20891;DHT22;10605;52.968;8.844;2022-12-11T12:01:21;1.10;99.90
20891;DHT22;10605;52.968;8.844;2022-12-11T12:03:48;1.20;99.90
20891;DHT22;10605;52.968;8.844;2022-12-11T12:14:34;1.40;99.90
20891;DHT22;10605;52.968;8.844;2022-12-11T12:19:46;1.40;99.90
20891;DHT22;10605;52.968;8.844;2022-12-11T12:27:49;1.30;99.90
20891;DHT22;10605;52.968;8.844;2022-12-11T12:30:18;1.30;99.90
20891;DHT22;10605;52.968;8.844;2022-12-11T12:33:00;1.30;99.90
20891;DHT22;10605;52.968;8.844;2022-12-11T12:35:36;1.40;99.90
20891;DHT22;10605;52.968;8.844;2022-12-11T12:38:14;1.40;99.90
20891;DHT22;10605;52.968;8.844;2022-12-11T12:48:36;1.20;99.90
20891;DHT22;10605;52.968;8.844;2022-12-11T12:51:02;1.20;99.90
20891;DHT22;10605;52.968;8.844;2022-12-11T12:53:31;1.10;99.90
20891;DHT22;10605;52.968;8.844;2022-12-11T12:55:58;1.10;99.90
20891;DHT22;10605;52.968;8.844;2022-12-11T13:01:16;1.20;99.90
20891;DHT22;10605;52.968;8.844;2022-12-11T13:06:15;1.30;99.90
20891;DHT22;10605;52.968;8.844;2022-12-11T13:08:52;1.20;99.90
20891;DHT22;10605;52.968;8.844;2022-12-11T13:11:19;1.20;99.90
20891;DHT22;10605;52.968;8.844;2022-12-11T13:14:06;1.10;99.90
20891;DHT22;10605;52.968;8.844;2022-12-11T13:16:40;1.10;99.90
20891;DHT22;10605;52.968;8.844;2022-12-11T13:27:24;1.20;99.90
20891;DHT22;10605;52.968;8.844;2022-12-11T13:29:50;1.20;99.90
20891;DHT22;10605;52.968;8.844;2022-12-11T13:34:50;1.30;99.90
20891;DHT22;10605;52.968;8.844;2022-12-11T13:37:32;1.40;99.90
20891;DHT22;10605;52.968;8.844;2022-12-11T13:40:02;1.50;99.90
20891;DHT22;10605;52.968;8.844;2022-12-11T13:42:35;1.40;99.90
20891;DHT22;10605;52.968;8.844;2022-12-11T13:45:03;1.40;99.90
20891;DHT22;10605;52.968;8.844;2022-12-11T13:47:30;1.40;99.90
20891;DHT22;10605;52.968;8.844;2022-12-11T13:50:18;1.40;99.90
20891;DHT22;10605;52.968;8.844;2022-12-11T13:53:14;1.40;99.90
20891;DHT22;10605;52.968;8.844;2022-12-11T13:55:41;1.30;99.90
20891;DHT22;10605;52.968;8.844;2022-12-11T13:58:20;1.30;99.90
20891;DHT22;10605;52.968;8.844;2022-12-11T14:03:37;1.30;99.90
20891;DHT22;10605;52.968;8.844;2022-12-11T14:06:04;1.40;99.90
20891;DHT22;10605;52.968;8.844;2022-12-11T14:08:35;1.30;99.90
20891;DHT22;10605;52.968;8.844;2022-12-11T14:11:03;1.40;99.90
20891;DHT22;10605;52.968;8.844;2022-12-11T14:13:38;1.30;99.90
20891;DHT22;10605;52.968;8.844;2022-12-11T14:16:05;1.30;99.90
20891;DHT22;10605;52.968;8.844;2022-12-11T14:18:32;1.30;99.90
20891;DHT22;10605;52.968;8.844;2022-12-11T14:21:02;1.20;99.90
20891;DHT22;10605;52.968;8.844;2022-12-11T14:23:33;1.10;99.90
20891;DHT22;10605;52.968;8.844;2022-12-11T14:26:17;1.10;99.90
20891;DHT22;10605;52.968;8.844;2022-12-11T14:28:44;1.10;99.90
20891;DHT22;10605;52.968;8.844;2022-12-11T14:31:14;1.10;99.90
20891;DHT22;10605;52.968;8.844;2022-12-11T14:33:45;1.10;99.90
20891;DHT22;10605;52.968;8.844;2022-12-11T14:36:13;1.00;99.90
20891;DHT22;10605;52.968;8.844;2022-12-11T14:38:54;0.90;99.90
20891;DHT22;10605;52.968;8.844;2022-12-11T14:42:13;0.90;99.90
20891;DHT22;10605;52.968;8.844;2022-12-11T14:44:15;0.70;99.90
20891;DHT22;10605;52.968;8.844;2022-12-11T14:46:55;0.60;99.90
20891;DHT22;10605;52.968;8.844;2022-12-11T14:52:14;0.50;99.90
20891;DHT22;10605;52.968;8.844;2022-12-11T14:54:45;0.50;99.90
20891;DHT22;10605;52.968;8.844;2022-12-11T14:57:21;0.40;99.90
20891;DHT22;10605;52.968;8.844;2022-12-11T14:59:49;0.40;99.90
20891;DHT22;10605;52.968;8.844;2022-12-11T15:07:35;0.20;99.90
20891;DHT22;10605;52.968;8.844;2022-12-11T15:10:02;0.20;99.90
20891;DHT22;10605;52.968;8.844;2022-12-11T15:12:28;0.20;99.90
20891;DHT22;10605;52.968;8.844;2022-12-11T15:14:57;0.10;99.90
20891;DHT22;10605;52.968;8.844;2022-12-11T15:17:26;0.10;99.90
20891;DHT22;10605;52.968;8.844;2022-12-11T15:19:55;0.10;99.90
20891;DHT22;10605;52.968;8.844;2022-12-11T15:22:25;0.10;99.90
20891;DHT22;10605;52.968;8.844;2022-12-11T15:24:54;0.10;99.90
20891;DHT22;10605;52.968;8.844;2022-12-11T15:29:51;0.10;99.90
20891;DHT22;10605;52.968;8.844;2022-12-11T15:32:18;0.10;99.90
20891;DHT22;10605;52.968;8.844;2022-12-11T15:37:32;0.10;99.90
20891;DHT22;10605;52.968;8.844;2022-12-11T15:40:00;0.00;99.90
20891;DHT22;10605;52.968;8.844;2022-12-11T15:44:56;0.00;99.90
20891;DHT22;10605;52.968;8.844;2022-12-11T15:47:25;0.00;99.90
20891;DHT22;10605;52.968;8.844;2022-12-11T15:50:10;0.00;99.90
20891;DHT22;10605;52.968;8.844;2022-12-11T15:52:37;0.00;99.90
20891;DHT22;10605;52.968;8.844;2022-12-11T15:55:04;0.00;99.90
20891;DHT22;10605;52.968;8.844;2022-12-11T15:57:30;0.00;99.90
20891;DHT22;10605;52.968;8.844;2022-12-11T15:59:57;0.00;99.90
20891;DHT22;10605;52.968;8.844;2022-12-11T16:02:23;0.00;99.90
20891;DHT22;10605;52.968;8.844;2022-12-11T16:04:49;0.00;99.90
20891;DHT22;10605;52.968;8.844;2022-12-11T16:07:18;0.00;99.90
20891;DHT22;10605;52.968;8.844;2022-12-11T16:09:45;0.00;99.90
20891;DHT22;10605;52.968;8.844;2022-12-11T16:12:11;0.00;99.90
20891;DHT22;10605;52.968;8.844;2022-12-11T16:14:39;-0.10;99.90
20891;DHT22;10605;52.968;8.844;2022-12-11T16:17:05;0.00;99.90
20891;DHT22;10605;52.968;8.844;2022-12-11T16:19:32;-0.10;99.90
20891;DHT22;10605;52.968;8.844;2022-12-11T16:21:58;-0.10;99.90
20891;DHT22;10605;52.968;8.844;2022-12-11T16:24:24;0.00;99.90
20891;DHT22;10605;52.968;8.844;2022-12-11T16:26:49;-0.10;99.90
20891;DHT22;10605;52.968;8.844;2022-12-11T16:29:15;-0.10;99.90
20891;DHT22;10605;52.968;8.844;2022-12-11T16:31:41;-0.20;99.90
20891;DHT22;10605;52.968;8.844;2022-12-11T16:34:07;-0.30;99.90
20891;DHT22;10605;52.968;8.844;2022-12-11T16:36:33;-0.20;99.90
20891;DHT22;10605;52.968;8.844;2022-12-11T16:38:59;-0.20;99.90
20891;DHT22;10605;52.968;8.844;2022-12-11T16:41:24;-0.20;99.90
20891;DHT22;10605;52.968;8.844;2022-12-11T16:43:50;-0.20;99.90
20891;DHT22;10605;52.968;8.844;2022-12-11T16:46:19;-0.30;99.90
20891;DHT22;10605;52.968;8.844;2022-12-11T16:48:44;-0.20;99.90
20891;DHT22;10605;52.968;8.844;2022-12-11T16:51:10;-0.30;99.90
20891;DHT22;10605;52.968;8.844;2022-12-11T16:53:36;-0.30;99.90
20891;DHT22;10605;52.968;8.844;2022-12-11T16:56:01;-0.30;99.90
20891;DHT22;10605;52.968;8.844;2022-12-11T16:58:32;-0.20;99.90
20891;DHT22;10605;52.968;8.844;2022-12-11T17:00:58;-0.20;99.90
20891;DHT22;10605;52.968;8.844;2022-12-11T17:03:32;-0.20;99.90
20891;DHT22;10605;52.968;8.844;2022-12-11T17:05:58;-0.20;99.90
20891;DHT22;10605;52.968;8.844;2022-12-11T17:08:24;-0.20;99.90
20891;DHT22;10605;52.968;8.844;2022-12-11T17:10:51;-0.30;99.90
20891;DHT22;10605;52.968;8.844;2022-12-11T17:13:17;-0.30;99.90
20891;DHT22;10605;52.968;8.844;2022-12-11T17:15:43;-0.30;99.90
20891;DHT22;10605;52.968;8.844;2022-12-11T17:18:10;-0.30;99.90
20891;DHT22;10605;52.968;8.844;2022-12-11T17:20:40;-0.30;99.90
20891;DHT22;10605;52.968;8.844;2022-12-11T17:23:07;-0.30;99.90
20891;DHT22;10605;52.968;8.844;2022-12-11T17:25:41;-0.40;99.90
20891;DHT22;10605;52.968;8.844;2022-12-11T17:28:07;-0.30;99.90
20891;DHT22;10605;52.968;8.844;2022-12-11T17:30:33;-0.20;99.90
20891;DHT22;10605;52.968;8.844;2022-12-11T17:32:59;-0.20;99.90
20891;DHT22;10605;52.968;8.844;2022-12-11T17:35:27;-0.10;99.90
20891;DHT22;10605;52.968;8.844;2022-12-11T17:37:52;-0.20;99.90
20891;DHT22;10605;52.968;8.844;2022-12-11T17:40:18;-0.10;99.90
20891;DHT22;10605;52.968;8.844;2022-12-11T17:42:45;-0.10;99.90
20891;DHT22;10605;52.968;8.844;2022-12-11T17:45:11;-0.10;99.90
20891;DHT22;10605;52.968;8.844;2022-12-11T17:47:37;-0.20;99.90
20891;DHT22;10605;52.968;8.844;2022-12-11T17:50:03;0.00;99.90
20891;DHT22;10605;52.968;8.844;2022-12-11T17:52:29;0.00;99.90
20891;DHT22;10605;52.968;8.844;2022-12-11T17:54:55;-0.10;99.90